Time;durP1;ratioP1;P1;durP2;ratioP2;P2;SDS_P1;SDS_P2;PMS_P1;PMS_P2;Temp;Humidity;BMP_temperature;BMP_pressure;BME280_temperature;BME280_humidity;BME280_pressure;Samples;Min_cycle;Max_cycle;Signal;HPM_P1;HPM_P2
2021/05/07 00:02:18;;;;;;;2.97;0.65;;;11.90;51.50;;;;;;5045576;28;20296;-67
2021/05/07 00:04:43;;;;;;;;;;;12.00;51.80;;;;;;5045591;28;20075;-67
2021/05/07 00:07:09;;;;;;;3.75;0.98;;;12.00;51.90;;;;;;5045641;28;20296;-67
2021/05/07 00:09:35;;;;;;;;;;;12.00;52.50;;;;;;5045861;28;20021;-67
2021/05/07 00:12:00;;;;;;;3.38;0.80;;;11.90;52.10;;;;;;5045511;28;19971;-68
2021/05/07 00:14:26;;;;;;;;;;;11.90;52.30;;;;;;5045574;28;20029;-67
2021/05/07 00:16:53;;;;;;;5.32;0.60;;;11.90;53.00;;;;;;5045525;28;19909;-66
2021/05/07 00:19:19;;;;;;;4.40;0.75;;;11.90;52.80;;;;;;5045449;28;20033;-67
2021/05/07 00:21:45;;;;;;;;;;;11.90;52.90;;;;;;5045628;28;20519;-67
2021/05/07 00:24:11;;;;;;;5.60;1.30;;;11.90;52.70;;;;;;5045344;28;19909;-67
2021/05/07 00:26:36;;;;;;;;;;;11.90;52.30;;;;;;5045293;28;20143;-67
2021/05/07 00:29:02;;;;;;;3.65;0.73;;;11.90;53.00;;;;;;5043935;28;19915;-67
2021/05/07 00:31:28;;;;;;;;;;;11.90;53.80;;;;;;5046136;28;20029;-67
2021/05/07 00:33:53;;;;;;;4.38;1.00;;;12.00;53.40;;;;;;5044841;28;20288;-68
2021/05/07 00:36:19;;;;;;;;;;;11.90;53.20;;;;;;5045749;28;20371;-68
2021/05/07 00:38:45;;;;;;;3.33;0.90;;;11.90;53.30;;;;;;5045180;28;19963;-67
2021/05/07 00:41:10;;;;;;;;;;;11.90;54.30;;;;;;5045067;28;20119;-68
2021/05/07 00:43:40;;;;;;;4.72;1.20;;;11.90;55.20;;;;;;5045268;28;19905;-67
2021/05/07 00:46:06;;;;;;;1.95;0.70;;;12.00;54.30;;;;;;5045572;28;20481;-67
2021/05/07 00:48:31;;;;;;;;;;;12.00;54.40;;;;;;5046919;28;20029;-67
2021/05/07 00:50:57;;;;;;;2.35;0.90;;;12.00;55.00;;;;;;5049242;28;20428;-68
2021/05/07 00:53:23;;;;;;;;;;;11.90;55.00;;;;;;5048998;28;20029;-67
2021/05/07 00:55:49;;;;;;;3.40;1.00;;;11.90;56.40;;;;;;5048489;28;19951;-67
2021/05/07 00:58:14;;;;;;;;;;;11.90;56.50;;;;;;5047829;28;20682;-68
2021/05/07 01:00:40;;;;;;;3.55;1.00;;;11.80;56.70;;;;;;5048767;28;20011;-67
2021/05/07 01:03:06;;;;;;;;;;;11.80;56.90;;;;;;5049303;28;20025;-67
2021/05/07 01:05:32;;;;;;;2.47;1.00;;;11.80;57.30;;;;;;5046765;28;20380;-67
2021/05/07 01:07:58;;;;;;;;;;;11.90;57.70;;;;;;5049090;28;20029;-68
2021/05/07 01:10:24;;;;;;;3.58;1.30;;;11.90;56.90;;;;;;5046551;28;19908;-67
2021/05/07 01:12:50;;;;;;;10.15;1.33;;;11.90;56.50;;;;;;5048397;28;20122;-68
2021/05/07 01:15:25;;;;;;;3.08;0.95;;;12.00;55.40;;;;;;5048490;28;20017;-67
2021/05/07 01:17:53;;;;;;;2.72;0.98;;;12.00;55.50;;;;;;5047937;28;20031;-67
2021/05/07 01:20:19;;;;;;;6.68;1.40;;;12.00;55.80;;;;;;5046664;28;20067;-68
2021/05/07 01:22:46;;;;;;;;;;;12.00;56.30;;;;;;5048873;28;20025;-68
2021/05/07 01:25:13;;;;;;;2.85;1.10;;;11.90;56.40;;;;;;5047597;28;19915;-68
2021/05/07 01:27:45;;;;;;;3.50;0.93;;;11.90;56.60;;;;;;5047836;28;20025;-68
2021/05/07 01:30:15;;;;;;;3.38;1.15;;;11.90;56.90;;;;;;5048085;28;20036;-68
2021/05/07 01:32:42;;;;;;;8.98;1.23;;;11.80;57.00;;;;;;5047916;28;20025;-67
2021/05/07 01:35:15;;;;;;;6.07;1.35;;;11.80;57.40;;;;;;5048164;28;20035;-67
2021/05/07 01:37:43;;;;;;;3.55;1.13;;;11.80;58.00;;;;;;5047727;28;20119;-68
2021/05/07 01:40:28;;;;;;;2.85;0.90;;;11.80;57.70;;;;;;5047383;28;20416;-68
2021/05/07 01:42:55;;;;;;;2.70;1.17;;;11.80;58.10;;;;;;5047589;28;20037;-68
2021/05/07 01:45:27;;;;;;;2.58;1.00;;;11.80;58.80;;;;;;5047563;28;20460;-68
2021/05/07 01:47:53;;;;;;;4.47;1.23;;;11.80;58.70;;;;;;5047863;28;20071;-68
2021/05/07 01:50:22;;;;;;;2.85;1.17;;;11.70;58.90;;;;;;5047800;28;20524;-68
2021/05/07 01:52:48;;;;;;;6.05;1.20;;;11.70;59.90;;;;;;5047767;28;20025;-68
2021/05/07 01:55:18;;;;;;;;;;;11.60;59.30;;;;;;5047578;28;20029;-67
2021/05/07 01:57:44;;;;;;;5.78;1.38;;;11.60;59.00;;;;;;5047476;28;19905;-68
2021/05/07 02:00:13;;;;;;;6.07;1.00;;;11.70;60.70;;;;;;5047100;28;20128;-67
2021/05/07 02:02:39;;;;;;;2.30;1.20;;;11.60;60.20;;;;;;5047416;28;20029;-68
2021/05/07 02:05:06;;;;;;;5.28;1.90;;;11.60;59.80;;;;;;5047468;28;20108;-68
2021/05/07 02:07:32;;;;;;;3.60;1.30;;;11.70;60.40;;;;;;5046878;28;20025;-68
2021/05/07 02:09:58;;;;;;;;;;;11.60;60.00;;;;;;5047404;28;20048;-67
2021/05/07 02:12:23;;;;;;;5.97;2.22;;;11.60;60.10;;;;;;5046914;28;20321;-67
2021/05/07 02:14:49;;;;;;;;;;;11.70;59.90;;;;;;5046141;28;20489;-67
2021/05/07 02:17:15;;;;;;;2.92;1.08;;;11.70;60.10;;;;;;5046728;28;19908;-67
2021/05/07 02:19:40;;;;;;;;;;;11.60;60.10;;;;;;5047493;28;20060;-68
2021/05/07 02:22:06;;;;;;;3.13;1.38;;;11.60;60.20;;;;;;5047270;28;19917;-68
2021/05/07 02:24:31;;;;;;;;;;;11.60;60.30;;;;;;5046724;28;20025;-67
2021/05/07 02:26:57;;;;;;;3.75;1.50;;;11.70;60.50;;;;;;5047038;28;19944;-67
2021/05/07 02:29:22;;;;;;;;;;;11.70;60.50;;;;;;5047475;28;20460;-67
2021/05/07 02:31:48;;;;;;;3.40;1.67;;;11.70;61.40;;;;;;5046764;28;19908;-67
2021/05/07 02:34:14;;;;;;;;;;;11.70;61.00;;;;;;5046878;28;20387;-67
2021/05/07 02:36:40;;;;;;;2.88;1.20;;;11.70;61.40;;;;;;5047053;28;20285;-67
2021/05/07 02:39:07;;;;;;;4.57;1.38;;;11.70;61.20;;;;;;5046138;28;20033;-68
2021/05/07 02:41:36;;;;;;;4.68;1.48;;;11.60;61.10;;;;;;5047053;28;20025;-68
2021/05/07 02:44:06;;;;;;;6.22;1.55;;;11.60;61.80;;;;;;5046400;28;20124;-68
2021/05/07 02:46:36;;;;;;;6.75;1.27;;;11.60;62.50;;;;;;5046602;28;20033;-67
2021/05/07 02:49:04;;;;;;;5.47;1.50;;;11.60;62.60;;;;;;5046537;28;20422;-67
2021/05/07 02:51:30;;;;;;;5.40;1.60;;;11.50;62.80;;;;;;5046478;28;20047;-69
2021/05/07 02:53:56;;;;;;;;;;;11.40;63.80;;;;;;5046754;28;20028;-67
2021/05/07 02:56:22;;;;;;;5.32;1.55;;;11.40;64.10;;;;;;5046084;28;19923;-66
2021/05/07 02:58:47;;;;;;;;;;;11.30;64.00;;;;;;5046606;28;20075;-67
2021/05/07 03:01:13;;;;;;;7.03;1.42;;;11.20;64.70;;;;;;5044614;28;19919;-67
2021/05/07 03:03:39;;;;;;;;;;;11.10;65.50;;;;;;5046942;28;20036;-67
2021/05/07 03:06:05;;;;;;;4.25;1.25;;;11.10;65.40;;;;;;5046293;28;19999;-67
2021/05/07 03:08:30;;;;;;;;;;;11.00;66.30;;;;;;5046218;28;20021;-67
2021/05/07 03:10:56;;;;;;;3.88;1.17;;;11.00;66.70;;;;;;5046004;28;19909;-67
2021/05/07 03:13:21;;;;;;;;;;;10.90;66.40;;;;;;5046537;28;20649;-67
2021/05/07 03:15:47;;;;;;;5.78;0.98;;;10.80;67.80;;;;;;5045700;28;20438;-67
2021/05/07 03:18:14;;;;;;;;;;;10.70;67.60;;;;;;5050830;28;20040;-67
2021/05/07 03:20:40;;;;;;;3.92;1.55;;;10.70;68.30;;;;;;5051737;28;20277;-68
2021/05/07 03:23:05;;;;;;;;;;;10.60;68.40;;;;;;5044911;28;20491;-67
2021/05/07 03:25:31;;;;;;;4.22;1.65;;;10.50;68.90;;;;;;5064401;28;19948;-69
2021/05/07 03:27:56;;;;;;;;;;;10.40;69.30;;;;;;5065176;28;20042;-67
2021/05/07 03:30:22;;;;;;;7.68;1.88;;;10.30;70.50;;;;;;5063633;28;20330;-64
2021/05/07 03:32:47;;;;;;;8.50;1.88;;;10.30;70.30;;;;;;5064553;28;20116;-67
2021/05/07 03:35:13;;;;;;;;;;;10.30;71.40;;;;;;5064012;28;20766;-67
2021/05/07 03:37:38;;;;;;;6.80;2.10;;;10.30;71.90;;;;;;5045170;28;19912;-69
2021/05/07 03:40:04;;;;;;;;;;;10.20;71.60;;;;;;5044722;28;20114;-66
2021/05/07 03:42:32;;;;;;;4.43;1.70;;;10.10;71.90;;;;;;5043102;28;19956;-66
2021/05/07 03:44:57;;;;;;;5.70;1.83;;;10.10;71.90;;;;;;5044875;28;20571;-67
2021/05/07 03:47:23;;;;;;;;;;;10.10;72.30;;;;;;5043400;28;20079;-66
2021/05/07 03:49:48;;;;;;;4.80;1.55;;;10.00;73.40;;;;;;5057302;28;20119;-69
2021/05/07 03:52:14;;;;;;;;;;;10.00;73.60;;;;;;5065847;28;20033;-67
2021/05/07 03:54:40;;;;;;;3.85;1.60;;;10.10;74.30;;;;;;5064154;28;19932;-69
2021/05/07 03:57:05;;;;;;;;;;;10.20;73.40;;;;;;5066098;28;20508;-69
2021/05/07 03:59:31;;;;;;;5.07;2.50;;;10.30;73.80;;;;;;5065283;28;19930;-69
2021/05/07 04:01:56;;;;;;;;;;;10.30;74.50;;;;;;5065173;28;20032;-69
2021/05/07 04:04:22;;;;;;;11.90;4.20;;;10.30;74.40;;;;;;5065250;28;20005;-69
2021/05/07 04:06:48;;;;;;;7.35;2.85;;;10.40;74.10;;;;;;5065383;28;20051;-69
2021/05/07 04:09:17;;;;;;;;;;;10.60;73.80;;;;;;5064219;28;20060;-69
2021/05/07 04:11:56;;;;;;;9.00;4.47;;;11.00;72.70;;;;;;5064640;28;19951;-66
2021/05/07 04:14:22;;;;;;;12.88;3.33;;;11.30;71.70;;;;;;5064562;28;20033;-67
2021/05/07 04:16:47;;;;;;;;;;;11.50;70.20;;;;;;5063897;28;20062;-66
2021/05/07 04:19:13;;;;;;;3.85;2.25;;;11.50;69.60;;;;;;5064303;28;19916;-67
2021/05/07 04:21:39;;;;;;;;;;;11.50;69.30;;;;;;5064879;28;20056;-67
2021/05/07 04:24:05;;;;;;;7.85;1.88;;;11.40;69.10;;;;;;5066799;28;19916;-67
2021/05/07 04:26:31;;;;;;;6.32;2.17;;;11.30;69.80;;;;;;5066417;28;20087;-67
2021/05/07 04:28:56;;;;;;;;;;;11.30;70.40;;;;;;5068615;28;20483;-67
2021/05/07 04:31:22;;;;;;;7.82;1.90;;;11.30;70.80;;;;;;5068481;28;20287;-66
2021/05/07 04:33:48;;;;;;;;;;;11.40;70.90;;;;;;5068500;28;20035;-67
2021/05/07 04:36:13;;;;;;;5.15;1.85;;;11.40;70.90;;;;;;5066866;28;19909;-67
2021/05/07 04:38:39;;;;;;;;;;;11.50;70.70;;;;;;5066568;28;20037;-67
2021/05/07 04:41:05;;;;;;;5.68;1.75;;;11.70;70.40;;;;;;5068226;28;20164;-67
2021/05/07 04:43:30;;;;;;;;;;;11.80;70.60;;;;;;5067445;28;20439;-67
2021/05/07 04:45:56;;;;;;;4.30;1.83;;;12.00;71.40;;;;;;5067812;28;19955;-67
2021/05/07 04:48:21;;;;;;;;;;;12.00;71.00;;;;;;5068443;28;20033;-66
2021/05/07 04:50:47;;;;;;;3.97;1.40;;;12.10;71.30;;;;;;5068092;28;20299;-67
2021/05/07 04:53:13;;;;;;;;;;;12.10;71.10;;;;;;5068187;28;20385;-67
2021/05/07 04:55:38;;;;;;;5.90;1.90;;;12.20;71.60;;;;;;5067534;28;19934;-66
2021/05/07 04:58:04;;;;;;;;;;;12.20;71.90;;;;;;5068486;28;20051;-66
2021/05/07 05:00:29;;;;;;;7.72;2.63;;;12.30;73.40;;;;;;5067404;28;20030;-67
2021/05/07 05:02:55;;;;;;;;;;;12.20;72.30;;;;;;5059188;28;20481;-67
2021/05/07 05:05:21;;;;;;;7.10;1.55;;;12.30;72.00;;;;;;5047832;28;19915;-67
2021/05/07 05:07:52;;;;;;;4.43;1.95;;;12.20;71.40;;;;;;5046782;28;20029;-65
2021/05/07 05:10:21;;;;;;;4.45;2.00;;;12.30;70.60;;;;;;5047431;28;20024;-65
2021/05/07 05:12:46;;;;;;;10.23;3.72;;;12.30;69.60;;;;;;5046185;28;20523;-67
2021/05/07 05:15:12;;;;;;;;;;;12.30;68.60;;;;;;5047760;28;20029;-68
2021/05/07 05:17:38;;;;;;;6.35;2.72;;;12.30;68.00;;;;;;5045734;28;19958;-68
2021/05/07 05:20:04;;;;;;;;;;;12.30;68.60;;;;;;5046181;28;20700;-67
2021/05/07 05:22:30;;;;;;;4.20;2.10;;;12.30;70.60;;;;;;5046987;28;19920;-68
2021/05/07 05:24:57;;;;;;;;;;;12.20;71.60;;;;;;5047908;28;20449;-68
2021/05/07 05:27:23;;;;;;;3.58;1.60;;;12.20;72.70;;;;;;5047070;28;19908;-66
2021/05/07 05:29:48;;;;;;;;;;;12.20;73.00;;;;;;5047847;28;20166;-67
2021/05/07 05:32:14;;;;;;;4.88;2.17;;;12.20;74.20;;;;;;5045956;28;19908;-69
2021/05/07 05:34:39;;;;;;;;;;;12.10;74.30;;;;;;5046755;28;20075;-68
2021/05/07 05:37:05;;;;;;;3.22;1.83;;;12.00;75.40;;;;;;5046596;28;20338;-67
2021/05/07 05:39:31;;;;;;;;;;;12.00;75.00;;;;;;5048060;28;20094;-68
2021/05/07 05:41:59;;;;;;;3.88;2.05;;;11.90;76.20;;;;;;5047076;28;19914;-68
2021/05/07 05:44:25;;;;;;;8.55;1.73;;;11.90;76.40;;;;;;5046698;28;20025;-67
2021/05/07 05:46:51;;;;;;;;;;;11.80;77.00;;;;;;5048203;28;20059;-67
2021/05/07 05:49:16;;;;;;;4.53;2.47;;;11.80;78.60;;;;;;5056580;28;19962;-67
2021/05/07 05:51:42;;;;;;;;;;;11.80;78.60;;;;;;5067142;28;20103;-67
2021/05/07 05:54:07;;;;;;;3.80;1.65;;;11.70;80.50;;;;;;5067686;28;19908;-67
2021/05/07 05:56:33;;;;;;;;;;;11.80;78.90;;;;;;5053788;28;20012;-67
2021/05/07 05:58:59;;;;;;;5.80;2.72;;;11.80;79.30;;;;;;5058382;28;19928;-68
2021/05/07 06:01:24;;;;;;;;;;;11.80;80.50;;;;;;5056786;28;20455;-67
2021/05/07 06:03:50;;;;;;;7.88;3.17;;;11.70;82.30;;;;;;5067483;28;19908;-67
2021/05/07 06:06:16;;;;;;;;;;;11.70;82.70;;;;;;5067295;28;20028;-67
2021/05/07 06:08:41;;;;;;;6.10;2.83;;;11.70;83.50;;;;;;5067110;28;19916;-66
2021/05/07 06:11:07;;;;;;;;;;;11.60;82.90;;;;;;5067346;28;20016;-67
2021/05/07 06:13:33;;;;;;;6.47;2.83;;;11.60;82.00;;;;;;5053381;28;19908;-67
2021/05/07 06:15:58;;;;;;;4.97;2.88;;;11.60;82.10;;;;;;5047045;28;20025;-67
2021/05/07 06:18:24;;;;;;;;;;;11.70;82.30;;;;;;5062853;28;20039;-67
2021/05/07 06:20:50;;;;;;;5.28;2.47;;;11.70;82.90;;;;;;5066969;28;19997;-67
2021/05/07 06:23:15;;;;;;;;;;;11.60;83.20;;;;;;5067162;28;20052;-67
2021/05/07 06:25:41;;;;;;;5.47;2.60;;;11.70;82.90;;;;;;5067213;28;20387;-67
2021/05/07 06:28:07;;;;;;;;;;;11.70;82.80;;;;;;5067581;28;20448;-68
2021/05/07 06:30:32;;;;;;;4.15;2.17;;;11.70;82.30;;;;;;5066555;28;19908;-67
2021/05/07 06:32:58;;;;;;;;;;;11.80;81.60;;;;;;5066358;28;20024;-66
2021/05/07 06:35:24;;;;;;;3.95;2.00;;;11.80;80.20;;;;;;5066960;28;20553;-67
2021/05/07 06:37:49;;;;;;;;;;;11.90;80.30;;;;;;5066683;28;20522;-68
2021/05/07 06:40:16;;;;;;;3.58;2.25;;;12.10;79.20;;;;;;5053993;28;19927;-67
2021/05/07 06:42:46;;;;;;;4.28;2.75;;;12.20;79.10;;;;;;5051784;28;20044;-67
2021/05/07 06:45:12;;;;;;;8.77;2.80;;;12.40;77.40;;;;;;5053259;28;20060;-67
2021/05/07 06:47:38;;;;;;;6.10;2.33;;;12.50;74.80;;;;;;5053448;28;20042;-68
2021/05/07 06:50:04;;;;;;;;;;;12.70;74.80;;;;;;5053367;28;20552;-67
2021/05/07 06:52:31;;;;;;;5.30;2.90;;;12.80;73.90;;;;;;5055653;28;19928;-68
2021/05/07 06:54:56;;;;;;;5.13;2.60;;;12.70;73.50;;;;;;5053520;28;20067;-67
2021/05/07 06:57:22;;;;;;;;;;;12.80;74.10;;;;;;5051078;28;20057;-67
2021/05/07 06:59:49;;;;;;;4.10;2.63;;;12.80;74.10;;;;;;5046359;28;19923;-67
2021/05/07 07:02:16;;;;;;;6.95;2.45;;;12.80;74.50;;;;;;5045163;28;20094;-67
2021/05/07 07:04:41;;;;;;;7.68;2.30;;;12.80;74.60;;;;;;5046182;28;20405;-67
2021/05/07 07:07:07;;;;;;;;;;;12.80;74.60;;;;;;5046620;28;20488;-67
2021/05/07 07:09:32;;;;;;;7.10;3.28;;;12.70;75.60;;;;;;5046397;28;19970;-67
2021/05/07 07:11:58;;;;;;;;;;;12.70;75.50;;;;;;5046876;28;20639;-68
2021/05/07 07:14:24;;;;;;;9.10;3.72;;;12.70;76.10;;;;;;5044414;28;20354;-67
2021/05/07 07:16:49;;;;;;;;;;;12.60;76.30;;;;;;5045369;28;20068;-66
2021/05/07 07:19:15;;;;;;;7.45;3.88;;;12.60;77.40;;;;;;5045591;28;19912;-66
2021/05/07 07:21:40;;;;;;;;;;;12.60;77.20;;;;;;5045640;28;20061;-67
2021/05/07 07:24:06;;;;;;;11.45;6.43;;;12.60;77.00;;;;;;5046325;28;20027;-68
2021/05/07 07:26:32;;;;;;;10.85;6.50;;;12.60;77.10;;;;;;5045827;28;20060;-67
2021/05/07 07:28:57;;;;;;;;;;;12.60;77.30;;;;;;5046425;28;20063;-67
2021/05/07 07:31:23;;;;;;;14.32;6.70;;;12.60;77.20;;;;;;5044633;28;20357;-68
2021/05/07 07:33:49;;;;;;;;;;;12.60;77.60;;;;;;5050379;28;20048;-67
2021/05/07 07:36:15;;;;;;;12.00;6.40;;;12.60;76.80;;;;;;5058512;28;19930;-68
2021/05/07 07:38:40;;;;;;;;;;;12.60;76.40;;;;;;5065860;28;20053;-67
2021/05/07 07:41:06;;;;;;;11.70;6.18;;;12.60;76.90;;;;;;5065775;28;20265;-67
2021/05/07 07:43:33;;;;;;;11.13;6.10;;;12.70;77.80;;;;;;5066004;28;20051;-68
2021/05/07 07:45:59;;;;;;;9.57;5.22;;;12.70;78.10;;;;;;5065959;28;20070;-67
2021/05/07 07:48:24;;;;;;;;;;;12.90;78.20;;;;;;5066127;28;20036;-67
2021/05/07 07:50:50;;;;;;;10.27;3.97;;;13.10;77.40;;;;;;5064198;28;19912;-67
2021/05/07 07:53:15;;;;;;;;;;;13.30;76.70;;;;;;5066384;28;20529;-67
2021/05/07 07:55:41;;;;;;;7.85;4.15;;;13.50;76.80;;;;;;5064024;28;19950;-67
2021/05/07 07:58:08;;;;;;;;;;;13.70;77.20;;;;;;5053624;28;20604;-67
2021/05/07 08:00:34;;;;;;;7.03;3.70;;;13.80;75.90;;;;;;5068680;28;19916;-67
2021/05/07 08:03:00;;;;;;;12.38;4.35;;;13.80;75.90;;;;;;5059197;28;20024;-67
2021/05/07 08:05:25;;;;;;;;;;;13.80;75.90;;;;;;5048375;28;20382;-67
2021/05/07 08:07:55;;;;;;;6.90;3.35;;;13.80;75.00;;;;;;5050366;28;19905;-67
2021/05/07 08:10:21;;;;;;;11.35;4.88;;;13.90;76.00;;;;;;5058060;28;20055;-66
2021/05/07 08:12:46;;;;;;;;;;;14.00;75.30;;;;;;5052337;28;20037;-67
2021/05/07 08:15:12;;;;;;;6.57;3.53;;;14.00;76.10;;;;;;5060129;28;19962;-68
2021/05/07 08:17:38;;;;;;;;;;;14.10;76.00;;;;;;5053103;28;20025;-67
2021/05/07 08:20:05;;;;;;;6.88;3.78;;;14.30;75.60;;;;;;5055316;28;19967;-67
2021/05/07 08:22:31;;;;;;;7.85;3.97;;;14.50;74.90;;;;;;5053861;28;20554;-67
2021/05/07 08:24:56;;;;;;;;;;;14.70;74.30;;;;;;5058494;28;20025;-66
2021/05/07 08:27:22;;;;;;;6.88;3.13;;;14.80;74.50;;;;;;5055694;28;19905;-67
2021/05/07 08:29:47;;;;;;;;;;;14.90;73.00;;;;;;5056465;28;20040;-67
2021/05/07 08:32:13;;;;;;;7.18;4.18;;;15.10;73.20;;;;;;5057579;28;20642;-67
2021/05/07 08:34:42;;;;;;;6.00;3.35;;;15.10;72.90;;;;;;5056168;28;20025;-67
2021/05/07 08:37:08;;;;;;;5.72;3.28;;;15.20;72.20;;;;;;5057994;28;20017;-67
2021/05/07 08:39:34;;;;;;;7.97;3.75;;;15.40;72.20;;;;;;5055803;28;20036;-67
2021/05/07 08:42:00;;;;;;;15.63;4.03;;;15.50;71.50;;;;;;5056478;28;20382;-68
2021/05/07 08:44:26;;;;;;;5.57;2.78;;;15.60;70.90;;;;;;5057517;28;20037;-67
2021/05/07 08:46:54;;;;;;;10.63;3.72;;;15.90;70.30;;;;;;5055219;28;20568;-68
2021/05/07 08:49:20;;;;;;;9.68;4.03;;;16.10;68.90;;;;;;5056576;28;20017;-66
2021/05/07 08:51:46;;;;;;;8.55;3.13;;;16.10;68.90;;;;;;5057128;28;20508;-68
2021/05/07 08:54:12;;;;;;;9.60;4.15;;;16.20;69.20;;;;;;5055365;28;20043;-67
2021/05/07 08:56:38;;;;;;;9.63;2.72;;;16.20;67.50;;;;;;5057300;28;20854;-67
2021/05/07 08:59:04;;;;;;;10.60;3.75;;;16.00;67.50;;;;;;5055463;28;20033;-67
2021/05/07 09:01:43;;;;;;;9.13;3.70;;;15.90;68.90;;;;;;5057539;28;20024;-67
2021/05/07 09:04:13;;;;;;;8.18;3.30;;;15.90;69.00;;;;;;5058278;28;20027;-68
2021/05/07 09:06:51;;;;;;;8.48;3.00;;;16.00;69.00;;;;;;5053476;28;20078;-67
2021/05/07 09:09:23;;;;;;;7.10;3.65;;;16.00;69.30;;;;;;5047627;28;20071;-67
2021/05/07 09:11:49;;;;;;;5.15;3.08;;;16.10;70.30;;;;;;5047936;28;20025;-67
2021/05/07 09:14:15;;;;;;;10.07;3.13;;;16.40;69.30;;;;;;5047174;28;20393;-68
2021/05/07 09:17:02;;;;;;;9.00;2.70;;;16.60;66.70;;;;;;5048165;28;20032;-68
2021/05/07 09:19:30;;;;;;;9.20;3.15;;;16.70;66.80;;;;;;5054789;28;20116;-67
2021/05/07 09:21:57;;;;;;;7.10;3.30;;;16.80;64.50;;;;;;5055776;28;20037;-67
2021/05/07 09:24:35;;;;;;;6.55;3.33;;;16.80;64.80;;;;;;5056798;28;20016;-68
2021/05/07 09:27:02;;;;;;;7.40;3.28;;;17.00;64.30;;;;;;5056775;28;20028;-68
2021/05/07 09:29:35;;;;;;;7.70;3.45;;;17.10;63.60;;;;;;5055195;28;20025;-68
2021/05/07 09:32:02;;;;;;;6.32;3.22;;;16.90;64.80;;;;;;5054764;28;21394;-68
2021/05/07 09:34:34;;;;;;;7.53;2.83;;;17.00;64.30;;;;;;5069568;28;20576;-67
2021/05/07 09:37:00;;;;;;;6.07;2.80;;;17.00;64.40;;;;;;5054793;28;20043;-68
2021/05/07 09:39:26;;;;;;;8.75;2.78;;;17.00;64.40;;;;;;5056726;28;20032;-67
2021/05/07 09:41:53;;;;;;;5.53;2.45;;;17.00;64.10;;;;;;5057657;28;20032;-67
2021/05/07 09:44:24;;;;;;;6.90;2.90;;;17.10;63.90;;;;;;5067278;28;20028;-68
2021/05/07 09:46:51;;;;;;;6.68;4.15;;;17.20;63.40;;;;;;5067550;28;20055;-67
2021/05/07 09:49:29;;;;;;;7.72;2.95;;;17.20;63.90;;;;;;5067036;28;20456;-67
2021/05/07 09:51:55;;;;;;;6.18;3.03;;;17.20;62.70;;;;;;5067680;28;20025;-67
2021/05/07 09:54:22;;;;;;;4.88;2.17;;;17.00;62.20;;;;;;5067532;28;20023;-68
2021/05/07 09:56:48;;;;;;;4.97;2.83;;;16.90;61.30;;;;;;5067864;28;20063;-68
2021/05/07 09:59:15;;;;;;;4.97;2.22;;;16.60;62.20;;;;;;5067194;28;20094;-66
2021/05/07 10:01:43;;;;;;;5.22;1.67;;;16.40;63.00;;;;;;5067586;28;20032;-67
2021/05/07 10:04:11;;;;;;;6.93;2.70;;;16.10;63.70;;;;;;5067092;28;20024;-67
2021/05/07 10:06:37;;;;;;;6.93;2.47;;;15.80;66.00;;;;;;5067198;28;20049;-67
2021/05/07 10:09:03;;;;;;;3.60;1.90;;;15.60;67.20;;;;;;5067345;28;20567;-67
2021/05/07 10:11:39;;;;;;;4.03;2.08;;;15.40;67.60;;;;;;5067636;28;20036;-67
2021/05/07 10:14:14;;;;;;;4.35;2.38;;;15.20;68.10;;;;;;5067206;28;20043;-67
2021/05/07 10:16:41;;;;;;;7.63;2.45;;;15.10;69.00;;;;;;5067466;28;20032;-68
2021/05/07 10:19:11;;;;;;;6.65;2.50;;;14.90;70.30;;;;;;5066771;28;20032;-68
2021/05/07 10:21:40;;;;;;;8.95;2.78;;;14.70;71.10;;;;;;5066635;28;20147;-66
2021/05/07 10:24:07;;;;;;;7.38;2.30;;;14.70;71.50;;;;;;5066814;28;20588;-68
2021/05/07 10:26:50;;;;;;;9.48;2.30;;;14.60;71.90;;;;;;5063882;28;20166;-67
2021/05/07 10:29:21;;;;;;;5.13;2.15;;;14.50;72.00;;;;;;5060794;28;20029;-66
2021/05/07 10:31:52;;;;;;;6.32;2.15;;;14.50;72.30;;;;;;5055531;28;20617;-67
2021/05/07 10:34:20;;;;;;;3.95;1.95;;;14.60;72.50;;;;;;5056326;28;20551;-68
2021/05/07 10:36:48;;;;;;;4.80;1.88;;;14.60;72.70;;;;;;5053379;28;20037;-67
2021/05/07 10:39:16;;;;;;;5.88;2.65;;;14.70;72.80;;;;;;5051174;28;20033;-67
2021/05/07 10:41:42;;;;;;;4.35;1.70;;;14.90;72.20;;;;;;5053023;28;20089;-67
2021/05/07 10:44:08;;;;;;;;;;;15.00;70.90;;;;;;5054350;28;20045;-67
2021/05/07 10:46:34;;;;;;;4.40;2.25;;;15.00;71.00;;;;;;5050109;28;20001;-68
2021/05/07 10:49:00;;;;;;;;;;;15.10;70.90;;;;;;5055753;28;20044;-67
2021/05/07 10:51:27;;;;;;;3.97;2.00;;;15.20;70.50;;;;;;5054245;28;19931;-68
2021/05/07 10:54:11;;;;;;;4.85;2.08;;;15.30;70.00;;;;;;5050952;28;20041;-68
2021/05/07 10:56:39;;;;;;;5.55;2.70;;;15.50;69.50;;;;;;5050294;28;20025;-68
2021/05/07 10:59:11;;;;;;;4.72;1.95;;;15.60;69.00;;;;;;5056574;28;21473;-68
2021/05/07 11:01:37;;;;;;;5.22;2.20;;;15.60;68.60;;;;;;5066225;28;20051;-68
2021/05/07 11:04:07;;;;;;;;;;;15.60;68.30;;;;;;5066577;28;20103;-67
2021/05/07 11:06:45;;;;;;;5.18;2.00;;;15.60;69.10;;;;;;5066027;28;19908;-68
2021/05/07 11:09:15;;;;;;;4.72;1.98;;;15.60;69.80;;;;;;5066388;28;20032;-68
2021/05/07 11:11:40;;;;;;;5.07;2.00;;;15.60;70.30;;;;;;5065934;28;20032;-67
2021/05/07 11:14:15;;;;;;;4.00;1.88;;;15.60;69.90;;;;;;5065877;28;20024;-68
2021/05/07 11:16:42;;;;;;;5.60;1.58;;;15.70;71.10;;;;;;5066467;28;20036;-68
2021/05/07 11:19:19;;;;;;;3.20;1.30;;;15.80;71.30;;;;;;5065578;28;20082;-67
2021/05/07 11:21:56;;;;;;;6.25;1.73;;;15.80;71.50;;;;;;5066126;28;20049;-67
2021/05/07 11:24:23;;;;;;;2.63;1.23;;;15.80;70.40;;;;;;5065759;28;20024;-67
2021/05/07 11:26:49;;;;;;;3.45;1.17;;;15.70;70.90;;;;;;5064982;28;20035;-67
2021/05/07 11:29:25;;;;;;;4.10;1.52;;;15.60;72.60;;;;;;5065995;28;20028;-68
2021/05/07 11:31:51;;;;;;;;;;;15.50;72.90;;;;;;5066199;28;20067;-68
2021/05/07 11:34:26;;;;;;;2.73;1.40;;;15.40;73.00;;;;;;5063795;28;20369;-67
2021/05/07 11:36:59;;;;;;;4.10;0.90;;;15.40;72.80;;;;;;5065860;28;20020;-68
2021/05/07 11:39:26;;;;;;;1.73;0.43;;;15.30;70.80;;;;;;5066045;28;20029;-68
2021/05/07 11:41:51;;;;;;;1.70;0.47;;;15.20;69.00;;;;;;5065305;28;20036;-66
2021/05/07 11:44:17;;;;;;;;;;;15.00;70.30;;;;;;5065468;28;20385;-67
2021/05/07 11:46:57;;;;;;;1.30;0.50;;;14.80;69.70;;;;;;5065974;28;20284;-68
2021/05/07 11:49:22;;;;;;;2.28;0.77;;;14.70;70.60;;;;;;5065541;28;20634;-67
2021/05/07 11:51:48;;;;;;;;;;;14.70;71.60;;;;;;5065734;28;20031;-68
2021/05/07 11:54:14;;;;;;;1.70;0.77;;;14.60;72.20;;;;;;5065766;28;19908;-67
2021/05/07 11:56:39;;;;;;;7.00;1.85;;;14.50;73.20;;;;;;5065498;28;20072;-67
2021/05/07 11:59:05;;;;;;;;;;;14.50;75.60;;;;;;5066153;28;20032;-67
2021/05/07 12:01:31;;;;;;;5.65;2.90;;;14.40;78.30;;;;;;5065954;28;19908;-67
2021/05/07 12:04:02;;;;;;;11.80;5.45;;;14.40;78.90;;;;;;5063991;28;20519;-67
2021/05/07 12:06:29;;;;;;;9.35;5.75;;;14.40;80.20;;;;;;5065307;28;20408;-67
2021/05/07 12:09:05;;;;;;;10.60;4.90;;;14.60;80.70;;;;;;5065803;28;20612;-66
2021/05/07 12:11:31;;;;;;;10.63;5.22;;;14.60;80.90;;;;;;5065492;28;20021;-66
2021/05/07 12:14:07;;;;;;;;;;;14.60;81.30;;;;;;5065435;28;20043;-67
2021/05/07 12:16:32;;;;;;;13.20;5.68;;;14.60;81.70;;;;;;5062809;28;19908;-66
2021/05/07 12:18:58;;;;;;;;;;;14.60;82.30;;;;;;5064736;28;20090;-66
2021/05/07 12:21:24;;;;;;;9.65;6.40;;;14.60;83.10;;;;;;5064749;28;19921;-66
2021/05/07 12:23:51;;;;;;;10.57;6.25;;;14.60;83.90;;;;;;5065203;28;20067;-66
2021/05/07 12:26:19;;;;;;;12.57;6.88;;;14.70;84.50;;;;;;5065608;28;20048;-66
2021/05/07 12:28:55;;;;;;;11.77;6.55;;;14.70;84.60;;;;;;5065278;28;20465;-67
2021/05/07 12:31:29;;;;;;;10.98;6.38;;;14.70;85.70;;;;;;5065719;28;20402;-67
2021/05/07 12:33:56;;;;;;;9.13;5.57;;;14.70;85.40;;;;;;5065109;28;20024;-67
2021/05/07 12:36:24;;;;;;;13.60;6.43;;;14.70;85.80;;;;;;5064946;28;20028;-67
2021/05/07 12:38:50;;;;;;;8.93;5.82;;;14.60;86.10;;;;;;5064980;28;20032;-67
2021/05/07 12:41:20;;;;;;;;;;;14.50;86.60;;;;;;5066052;28;20029;-67
2021/05/07 12:43:50;;;;;;;11.70;5.65;;;14.50;86.10;;;;;;5066035;28;19908;-66
2021/05/07 12:46:18;;;;;;;8.82;5.95;;;14.50;85.70;;;;;;5068480;28;20085;-66
2021/05/07 12:48:48;;;;;;;9.95;6.25;;;14.50;86.60;;;;;;5067160;28;20750;-66
2021/05/07 12:51:15;;;;;;;16.02;7.45;;;14.50;86.80;;;;;;5069024;28;20033;-65
2021/05/07 12:53:42;;;;;;;12.98;7.15;;;14.40;87.20;;;;;;5069156;28;20070;-65
2021/05/07 12:56:08;;;;;;;12.70;6.00;;;14.40;87.40;;;;;;5068646;28;20033;-66
2021/05/07 12:58:34;;;;;;;10.93;6.57;;;14.30;87.10;;;;;;5068724;28;20023;-66
2021/05/07 13:00:59;;;;;;;;;;;14.10;87.30;;;;;;5069769;28;20036;-66
2021/05/07 13:03:25;;;;;;;8.63;5.50;;;14.10;87.10;;;;;;5067751;28;19905;-65
2021/05/07 13:05:51;;;;;;;;;;;13.90;86.30;;;;;;5067230;28;20033;-65
2021/05/07 13:08:16;;;;;;;10.07;6.15;;;13.80;86.60;;;;;;5067606;28;19908;-65
2021/05/07 13:10:42;;;;;;;;;;;13.60;87.30;;;;;;5068272;28;20419;-65